Hovedside
METAR-TAF:

METAR-TAF

Lufthavner :

Kramfors, Sverige

Kramfors lufthavn

breddegrad: 63-03N, lengdegrad: 017-46E, høyde over havet: 10 m

Gjeldene værobservasjon

Denne rapporten ble laget for 31 minutter siden, klokken 18:50 UTC
Flau vind
Temperatur 13°C
Luftfuktighet 82%
Trykk 1016 hPa
Sikt 10 km eller mer

METAR: ESNK 271850Z AUTO 00000KT 9999 OVC026/// 13/10 Q1016

Tid: 21:21 (19:21 UTC)

Varsel

Denne rapporten ble laget for 25 timer og 51 minutter siden, klokken 17:30 UTC
Varsel gyldig fra 26. klokken 18 UTC til 26. klokken 20 UTC
Vind 8 kt fra Sør-sørøst
Sikt 10 km eller mer
ingen skyer under 1500 m og ingen bygeskyer

TAF: ESNK 261730Z 2618/2620 16008KT CAVOK

Værobservasjoner og værvarsel for over 4000 flyplasser (METAR- og TAF-rapporter).

Tilgjengelige stasjoner er representert av de røde og gule prikkene på kartet.

Hold musepekeren over prikken for å se navnet på stasjonen.

Klikk så for å se værobservasjoner og -varsler.

For å forandre kartet kan du klikke på den grønne knappen med svart kryss for å zoome inn, på den grønne knappen med strek for å zoome ut, eller på de grønne pilene for å se tilstøtende kart.


METAR-TAF: